Time;durP1;ratioP1;P1;durP2;ratioP2;P2;SDS_P1;SDS_P2;PMS_P1;PMS_P2;Temp;Humidity;BMP_temperature;BMP_pressure;BME280_temperature;BME280_humidity;BME280_pressure;Samples;Min_cycle;Max_cycle;Signal;HPM_P1;HPM_P2
2022/03/18 00:00:27;;;;;;;10.55;7.57;;;18.60;47.60;;;;;;4852766;29;20197;-87
2022/03/18 00:02:56;;;;;;;10.50;7.35;;;18.60;47.50;;;;;;4854773;29;20189;-85
2022/03/18 00:05:24;;;;;;;11.02;7.20;;;18.60;47.60;;;;;;4838715;29;20213;-87
2022/03/18 00:07:53;;;;;;;9.38;7.40;;;18.50;47.50;;;;;;4839084;29;20329;-87
2022/03/18 00:10:24;;;;;;;8.77;7.05;;;18.50;47.50;;;;;;4837063;29;20329;-89
2022/03/18 00:12:52;;;;;;;10.13;7.63;;;18.50;47.70;;;;;;4848639;29;20184;-86
2022/03/18 00:15:18;;;;;;;10.15;7.68;;;18.50;47.70;;;;;;4864915;29;20177;-89
2022/03/18 00:17:45;;;;;;;10.48;7.30;;;18.50;47.60;;;;;;4865283;29;20203;-89
2022/03/18 00:20:12;;;;;;;10.75;7.63;;;18.50;47.70;;;;;;4863188;29;20183;-88
2022/03/18 00:22:40;;;;;;;11.25;7.72;;;18.50;47.40;;;;;;4845660;29;20267;-85
2022/03/18 00:25:08;;;;;;;10.57;7.60;;;18.50;47.80;;;;;;4845613;29;20208;-88
2022/03/18 00:27:38;;;;;;;9.63;7.10;;;18.40;47.50;;;;;;4876423;29;20177;-89
2022/03/18 00:30:06;;;;;;;9.25;7.35;;;18.40;47.80;;;;;;4860668;29;20629;-86
2022/03/18 00:32:32;;;;;;;9.23;7.43;;;18.40;47.60;;;;;;4860533;29;20308;-86
2022/03/18 00:35:00;;;;;;;9.88;7.38;;;18.40;47.70;;;;;;4845194;29;20248;-87
2022/03/18 00:37:25;;;;;;;10.68;7.30;;;18.40;47.70;;;;;;4813855;29;20216;-88
2022/03/18 00:39:52;;;;;;;10.63;7.25;;;18.40;47.60;;;;;;4860643;29;20165;-86
2022/03/18 00:42:19;;;;;;;10.40;7.88;;;18.40;47.80;;;;;;4843969;29;20596;-85
2022/03/18 00:44:45;;;;;;;9.95;7.22;;;18.40;47.50;;;;;;4844343;29;20188;-85
2022/03/18 00:52:31;;;;;;;9.95;7.38;;;18.50;47.50;;;;;;4860920;29;20161;-86
2022/03/18 00:54:58;;;;;;;9.38;7.03;;;18.50;47.60;;;;;;4860353;29;20628;-88
2022/03/18 00:57:24;;;;;;;10.23;7.60;;;18.50;47.40;;;;;;4844795;29;20253;-89
2022/03/18 00:59:49;;;;;;;9.60;7.03;;;18.50;47.50;;;;;;4860220;29;20209;-89
2022/03/18 01:02:15;;;;;;;8.88;7.20;;;18.50;47.40;;;;;;4861416;29;20243;-88
2022/03/18 01:04:40;;;;;;;9.68;7.68;;;18.50;47.50;;;;;;4860143;29;20256;-90
2022/03/18 01:07:07;;;;;;;10.35;7.72;;;18.40;47.50;;;;;;4860130;29;20168;-90
2022/03/18 01:09:32;;;;;;;10.20;7.53;;;18.50;47.40;;;;;;4868767;29;20746;-90
2022/03/18 01:11:59;;;;;;;10.70;7.63;;;18.40;47.30;;;;;;4860031;29;20244;-88
2022/03/18 01:14:29;;;;;;;10.73;7.75;;;18.50;47.30;;;;;;4829661;29;20256;-89
2022/03/18 01:17:00;;;;;;;8.95;7.18;;;18.40;47.50;;;;;;4814001;29;20320;-86
2022/03/18 01:19:29;;;;;;;12.43;7.63;;;18.40;47.40;;;;;;4813957;29;20201;-89
2022/03/18 01:21:58;;;;;;;9.90;7.80;;;18.40;47.50;;;;;;4829137;29;20196;-86
2022/03/18 01:24:29;;;;;;;11.63;7.40;;;18.40;47.70;;;;;;4813530;29;20522;-87
2022/03/18 01:26:59;;;;;;;10.10;7.57;;;18.40;47.50;;;;;;4844144;29;20189;-89
2022/03/18 01:29:28;;;;;;;9.65;7.35;;;18.40;47.30;;;;;;4813824;29;20185;-86
2022/03/18 01:31:55;;;;;;;9.80;8.15;;;18.40;47.40;;;;;;4829208;29;20203;-88
2022/03/18 01:34:21;;;;;;;10.45;7.90;;;18.50;47.30;;;;;;4844882;29;20172;-89
2022/03/18 01:36:47;;;;;;;10.02;7.45;;;18.40;47.50;;;;;;4844577;29;20165;-90
2022/03/18 01:39:19;;;;;;;10.27;7.60;;;18.40;47.30;;;;;;4844691;29;20212;-87
2022/03/18 01:41:47;;;;;;;8.48;7.05;;;18.40;47.40;;;;;;4813523;29;20308;-88
2022/03/18 01:44:19;;;;;;;11.15;8.13;;;18.40;47.50;;;;;;4813657;29;20302;-89
2022/03/18 01:46:47;;;;;;;11.63;7.68;;;18.30;47.40;;;;;;4828885;29;20645;-86
2022/03/18 01:49:13;;;;;;;11.80;8.00;;;18.40;47.50;;;;;;4813561;29;20245;-86
2022/03/18 01:51:41;;;;;;;11.02;7.63;;;18.30;47.50;;;;;;4829861;29;20173;-86
2022/03/18 01:56:44;;;;;;;9.38;7.97;;;18.30;47.60;;;;;;4845856;29;20629;-89
2022/03/18 01:59:13;;;;;;;10.23;7.65;;;18.40;47.40;;;;;;4859676;29;20245;-86
2022/03/18 02:01:40;;;;;;;9.68;7.72;;;18.40;47.50;;;;;;4844686;29;20613;-87
2022/03/18 02:04:08;;;;;;;9.18;7.90;;;18.30;47.30;;;;;;4829578;29;20233;-90
2022/03/18 02:06:34;;;;;;;10.23;7.93;;;18.40;47.60;;;;;;4863157;29;20161;-89
2022/03/18 02:09:00;;;;;;;9.63;8.15;;;18.40;47.60;;;;;;4832170;29;20684;-88
2022/03/18 02:11:28;;;;;;;11.93;8.10;;;18.30;47.50;;;;;;4832477;29;20229;-89
2022/03/18 02:14:01;;;;;;;8.98;7.63;;;18.30;47.60;;;;;;4831681;29;20541;-88
2022/03/18 02:16:29;;;;;;;10.25;7.93;;;18.30;47.80;;;;;;4831707;29;20219;-88
2022/03/18 02:18:57;;;;;;;10.30;7.53;;;18.30;47.60;;;;;;4816294;29;20664;-88
2022/03/18 02:21:23;;;;;;;10.43;7.60;;;18.30;47.80;;;;;;4831426;29;20648;-86
2022/03/18 02:23:49;;;;;;;9.73;7.60;;;18.20;47.60;;;;;;4847529;29;20260;-88
2022/03/18 02:26:15;;;;;;;10.00;7.85;;;18.30;47.80;;;;;;4847452;29;20165;-89
2022/03/18 02:28:41;;;;;;;9.40;7.28;;;18.30;47.60;;;;;;4832039;29;20180;-90
2022/03/18 02:31:07;;;;;;;9.05;7.55;;;18.30;47.70;;;;;;4832025;29;20599;-89
2022/03/18 02:33:33;;;;;;;9.57;7.80;;;18.30;47.80;;;;;;4832471;29;20324;-86
2022/03/18 02:35:58;;;;;;;10.82;8.43;;;18.30;47.80;;;;;;4847486;29;20161;-89
2022/03/18 02:38:26;;;;;;;9.55;7.82;;;18.20;47.80;;;;;;4847544;29;20188;-87
2022/03/18 02:40:52;;;;;;;13.20;8.43;;;18.20;47.90;;;;;;4828512;29;20213;-89
2022/03/18 02:43:20;;;;;;;9.57;7.97;;;18.20;47.50;;;;;;4813217;29;20703;-87
2022/03/18 02:45:45;;;;;;;10.10;7.70;;;18.30;47.80;;;;;;4797784;29;20169;-87
2022/03/18 02:48:11;;;;;;;10.00;7.53;;;18.30;47.90;;;;;;4812786;29;20197;-88
2022/03/18 02:50:37;;;;;;;10.07;8.00;;;18.20;48.10;;;;;;4813012;29;20177;-88
2022/03/18 02:53:06;;;;;;;10.00;7.88;;;18.20;47.90;;;;;;4812964;29;20193;-86
2022/03/18 02:55:31;;;;;;;10.40;7.88;;;18.20;47.60;;;;;;4797110;29;20729;-90
2022/03/18 02:57:57;;;;;;;10.32;7.60;;;18.20;47.80;;;;;;4812490;29;20247;-87
2022/03/18 03:00:25;;;;;;;12.00;7.70;;;18.20;47.70;;;;;;4812725;29;20208;-87
2022/03/18 03:02:52;;;;;;;9.35;7.32;;;18.20;47.60;;;;;;4782615;29;20286;-90
2022/03/18 03:07:59;;;;;;;11.18;7.93;;;18.30;47.90;;;;;;4834190;29;20196;-86
2022/03/18 03:10:30;;;;;;;9.90;8.05;;;18.20;47.80;;;;;;4843488;29;20320;-87
2022/03/18 03:12:59;;;;;;;15.25;8.15;;;18.20;47.80;;;;;;4846115;29;20584;-86
2022/03/18 03:15:25;;;;;;;9.38;7.70;;;18.20;48.00;;;;;;4830538;29;20193;-87
2022/03/18 03:17:57;;;;;;;13.48;7.65;;;18.30;48.10;;;;;;4830554;29;20208;-87
2022/03/18 03:20:23;;;;;;;9.20;7.90;;;18.20;48.10;;;;;;4830464;29;20189;-87
2022/03/18 03:22:57;;;;;;;10.75;8.05;;;18.20;48.00;;;;;;4861445;29;20272;-88
2022/03/18 03:25:27;;;;;;;10.50;8.23;;;18.20;48.10;;;;;;4861427;29;20216;-89
2022/03/18 03:27:58;;;;;;;10.82;8.05;;;18.20;48.00;;;;;;4830495;29;20197;-92
2022/03/18 03:30:25;;;;;;;9.02;7.95;;;18.20;47.90;;;;;;4846069;29;20197;-86
2022/03/18 03:32:51;;;;;;;10.07;8.10;;;18.20;48.00;;;;;;4831589;29;20165;-88
2022/03/18 03:35:18;;;;;;;10.25;8.32;;;18.20;47.80;;;;;;4846261;29;20272;-87
2022/03/18 03:37:46;;;;;;;9.77;7.70;;;18.20;47.80;;;;;;4846438;29;20197;-86
2022/03/18 03:40:13;;;;;;;11.15;7.47;;;18.20;47.80;;;;;;4846220;29;20167;-89
2022/03/18 03:42:40;;;;;;;10.68;8.20;;;18.20;47.80;;;;;;4846141;29;20181;-89
2022/03/18 03:45:09;;;;;;;11.55;8.07;;;18.20;48.20;;;;;;4830972;29;20176;-88
2022/03/18 03:47:36;;;;;;;9.88;7.68;;;18.20;47.70;;;;;;4830905;29;20233;-86
2022/03/18 03:50:03;;;;;;;11.25;8.23;;;18.20;48.00;;;;;;4861537;29;20609;-90
2022/03/18 03:52:35;;;;;;;11.23;7.90;;;18.20;47.80;;;;;;4830918;29;20165;-87
2022/03/18 03:55:04;;;;;;;10.93;8.27;;;18.20;48.00;;;;;;4845332;29;20641;-88
2022/03/18 03:57:29;;;;;;;10.05;8.27;;;18.20;47.90;;;;;;4831178;29;20204;-87
2022/03/18 03:59:58;;;;;;;9.88;8.10;;;18.10;48.00;;;;;;4861543;29;20164;-90
2022/03/18 04:02:27;;;;;;;9.20;7.35;;;18.10;48.10;;;;;;4829887;29;20275;-90
2022/03/18 04:04:57;;;;;;;9.80;8.13;;;18.20;48.00;;;;;;4846220;29;20184;-87
2022/03/18 04:07:28;;;;;;;12.88;8.20;;;18.10;48.10;;;;;;4830291;29;20660;-86
2022/03/18 04:09:58;;;;;;;11.45;7.82;;;18.10;48.20;;;;;;4860001;29;20240;-87
2022/03/18 04:12:27;;;;;;;10.10;7.97;;;18.10;47.80;;;;;;4845327;29;20200;-88
2022/03/18 04:14:56;;;;;;;12.48;8.38;;;18.10;48.10;;;;;;4844947;29;20283;-90
2022/03/18 04:17:43;;;;;;;10.35;8.35;;;18.20;47.90;;;;;;4844976;29;20185;-86
2022/03/18 04:20:12;;;;;;;9.98;8.10;;;18.20;48.30;;;;;;4860807;29;20209;-90
2022/03/18 04:22:38;;;;;;;10.55;8.63;;;18.10;48.30;;;;;;4845860;29;20179;-85
2022/03/18 04:25:04;;;;;;;10.90;7.95;;;18.10;48.10;;;;;;4830193;29;20169;-88
2022/03/18 04:27:33;;;;;;;11.07;8.15;;;18.20;48.00;;;;;;4860687;29;20196;-86
2022/03/18 04:30:00;;;;;;;9.93;7.88;;;18.10;48.00;;;;;;4860943;29;20168;-87
2022/03/18 04:32:25;;;;;;;9.35;7.80;;;18.10;47.90;;;;;;4847061;29;20173;-87
2022/03/18 04:34:51;;;;;;;9.30;8.23;;;18.10;48.00;;;;;;4831076;29;20236;-88
2022/03/18 04:37:19;;;;;;;11.88;8.68;;;18.10;48.10;;;;;;4831616;29;20682;-89
2022/03/18 04:39:44;;;;;;;9.57;7.90;;;18.10;48.00;;;;;;4831315;29;20680;-89
2022/03/18 04:42:10;;;;;;;9.93;8.30;;;18.10;48.00;;;;;;4862924;29;20248;-88
2022/03/18 04:44:35;;;;;;;10.30;7.82;;;18.10;48.80;;;;;;4861683;29;20157;-88
2022/03/18 04:47:04;;;;;;;11.60;8.07;;;18.10;48.20;;;;;;4847075;29;20172;-85
2022/03/18 04:49:33;;;;;;;8.98;8.00;;;18.10;48.20;;;;;;4831784;29;20185;-90
2022/03/18 04:52:00;;;;;;;9.25;7.95;;;18.10;48.20;;;;;;4861923;29;20199;-85
2022/03/18 04:54:30;;;;;;;9.70;8.10;;;18.10;47.80;;;;;;4862793;29;20165;-89
2022/03/18 04:59:49;;;;;;;11.52;7.82;;;18.10;48.20;;;;;;4849166;29;20210;-87
2022/03/18 05:02:18;;;;;;;10.77;8.27;;;18.10;48.40;;;;;;4831538;29;20184;-88
2022/03/18 05:04:48;;;;;;;10.40;8.05;;;18.10;48.20;;;;;;4831329;29;20186;-85
2022/03/18 05:07:14;;;;;;;10.52;8.02;;;18.10;48.20;;;;;;4831496;29;20265;-89
2022/03/18 05:09:41;;;;;;;8.95;8.05;;;18.10;47.80;;;;;;4845411;29;20227;-85
2022/03/18 05:12:11;;;;;;;10.13;7.50;;;18.10;47.90;;;;;;4853389;29;20208;-86
2022/03/18 05:14:39;;;;;;;11.05;8.63;;;18.10;48.10;;;;;;4837641;29;20242;-89
2022/03/18 05:17:08;;;;;;;11.93;8.32;;;18.10;48.10;;;;;;4837502;29;20239;-85
2022/03/18 05:19:36;;;;;;;10.48;8.25;;;18.00;48.10;;;;;;4854638;29;20230;-89
2022/03/18 05:22:02;;;;;;;11.40;7.93;;;18.10;48.20;;;;;;4839865;29;20183;-87
2022/03/18 05:24:32;;;;;;;10.13;7.97;;;18.10;48.20;;;;;;4855599;29;20612;-88
2022/03/18 05:26:59;;;;;;;11.13;8.23;;;18.10;48.20;;;;;;4870757;29;20163;-88
2022/03/18 05:29:26;;;;;;;9.93;7.95;;;18.10;48.20;;;;;;4855229;29;20263;-88
2022/03/18 05:31:52;;;;;;;10.27;8.23;;;18.10;48.40;;;;;;4855633;29;20167;-85
2022/03/18 05:34:19;;;;;;;10.77;8.27;;;18.10;48.20;;;;;;4873388;29;20174;-85
2022/03/18 05:36:49;;;;;;;9.88;8.43;;;18.10;48.20;;;;;;4873985;29;20159;-86
2022/03/18 05:39:20;;;;;;;10.23;8.23;;;18.00;48.40;;;;;;4827781;29;20283;-86
2022/03/18 05:41:51;;;;;;;10.82;8.18;;;18.00;48.40;;;;;;4861155;29;20183;-85
2022/03/18 05:44:21;;;;;;;10.38;8.60;;;18.00;48.30;;;;;;4860651;29;20211;-87
2022/03/18 05:46:50;;;;;;;11.60;8.48;;;18.00;47.90;;;;;;4830008;29;20254;-86
2022/03/18 05:49:19;;;;;;;11.55;8.55;;;18.10;47.90;;;;;;4858327;29;20192;-88
2022/03/18 05:51:48;;;;;;;9.40;7.78;;;18.10;47.60;;;;;;4840406;29;20183;-88
2022/03/18 05:54:16;;;;;;;10.32;8.23;;;18.20;47.60;;;;;;4840639;29;20195;-88
2022/03/18 05:56:58;;;;;;;10.50;8.50;;;18.20;47.60;;;;;;4841112;29;20221;-85
2022/03/18 05:59:31;;;;;;;9.45;7.53;;;18.30;47.50;;;;;;4837153;29;20229;-85
2022/03/18 06:01:58;;;;;;;10.85;8.43;;;18.30;47.30;;;;;;4846212;29;20192;-86
2022/03/18 06:04:25;;;;;;;10.63;8.38;;;18.30;47.40;;;;;;4861318;29;20163;-85
2022/03/18 06:06:51;;;;;;;11.18;8.10;;;18.40;47.00;;;;;;4861445;29;20174;-85
2022/03/18 06:11:59;;;;;;;11.15;8.18;;;18.40;47.10;;;;;;4860171;29;20196;-84
2022/03/18 06:14:29;;;;;;;10.52;8.00;;;18.40;46.70;;;;;;4829329;29;20189;-84
2022/03/18 06:16:56;;;;;;;9.82;8.00;;;18.40;47.10;;;;;;4844414;29;20192;-83
2022/03/18 06:19:24;;;;;;;9.65;8.00;;;18.40;46.80;;;;;;4860086;29;20232;-83
2022/03/18 06:21:51;;;;;;;10.05;8.07;;;18.40;46.70;;;;;;4875726;29;20169;-83
2022/03/18 06:24:18;;;;;;;10.48;7.97;;;18.50;46.60;;;;;;4875348;29;20175;-84
2022/03/18 06:26:44;;;;;;;10.90;8.05;;;18.50;46.80;;;;;;4845284;29;20193;-84
2022/03/18 06:29:11;;;;;;;10.43;8.10;;;18.50;46.80;;;;;;4845760;29;20169;-84
2022/03/18 06:31:40;;;;;;;9.90;8.00;;;18.40;46.60;;;;;;4860606;29;20161;-84
2022/03/18 06:34:06;;;;;;;12.27;7.78;;;18.50;46.70;;;;;;4860043;29;20249;-83
2022/03/18 06:36:35;;;;;;;11.48;8.75;;;18.50;46.70;;;;;;4863911;29;20205;-83
2022/03/18 06:39:06;;;;;;;9.32;7.53;;;18.50;46.80;;;;;;4848091;29;20307;-83
2022/03/18 06:41:33;;;;;;;9.27;7.78;;;18.50;46.80;;;;;;4848044;29;20193;-82
2022/03/18 06:43:59;;;;;;;8.75;6.85;;;18.50;46.80;;;;;;4849463;29;20205;-83
2022/03/18 06:46:26;;;;;;;10.18;8.20;;;18.50;46.40;;;;;;4848111;29;20165;-85
2022/03/18 06:48:54;;;;;;;8.68;7.20;;;18.60;46.70;;;;;;4862553;29;20172;-84
2022/03/18 06:51:23;;;;;;;9.00;7.55;;;18.60;46.30;;;;;;4846365;29;20161;-83
2022/03/18 06:53:50;;;;;;;9.40;7.78;;;18.60;46.60;;;;;;4862617;29;20172;-83
2022/03/18 06:56:20;;;;;;;9.80;7.60;;;18.60;46.60;;;;;;4862658;29;20164;-84
2022/03/18 06:58:51;;;;;;;9.20;7.65;;;18.60;46.80;;;;;;4863615;29;20227;-83
2022/03/18 07:01:33;;;;;;;9.18;7.10;;;18.60;46.60;;;;;;4880039;29;20185;-83
2022/03/18 07:04:03;;;;;;;9.65;7.07;;;18.60;46.30;;;;;;4847560;29;20205;-82
2022/03/18 07:06:32;;;;;;;10.00;7.32;;;18.60;46.40;;;;;;4844376;29;20632;-82
2022/03/18 07:08:57;;;;;;;8.63;6.95;;;18.60;46.50;;;;;;4829151;29;20249;-82
2022/03/18 07:11:28;;;;;;;9.05;7.15;;;18.60;46.00;;;;;;4860067;29;20180;-82
2022/03/18 07:13:58;;;;;;;10.95;7.32;;;18.60;46.00;;;;;;4844605;29;20193;-82
2022/03/18 07:19:28;;;;;;;9.57;7.10;;;18.60;46.50;;;;;;4858652;29;20224;-85
2022/03/18 07:21:54;;;;;;;8.15;7.18;;;18.60;46.70;;;;;;4905629;24;20247;-86
2022/03/18 07:24:28;;;;;;;8.23;6.78;;;18.60;46.20;;;;;;4880975;29;20647;-92
2022/03/18 07:26:59;;;;;;;9.20;7.03;;;18.60;46.10;;;;;;4878816;29;20256;-86
2022/03/18 07:29:29;;;;;;;8.30;6.57;;;18.80;46.20;;;;;;4861229;29;20554;-84
2022/03/18 07:31:57;;;;;;;9.52;7.10;;;18.70;46.40;;;;;;4848729;29;20274;-90
2022/03/18 07:34:27;;;;;;;9.18;7.00;;;18.70;46.10;;;;;;4849027;29;20554;-86
2022/03/18 07:36:57;;;;;;;7.63;6.45;;;18.70;46.40;;;;;;4849693;29;20195;-85
2022/03/18 07:39:25;;;;;;;7.85;6.78;;;18.70;46.50;;;;;;4849003;29;20762;-86
2022/03/18 07:41:58;;;;;;;8.27;6.43;;;18.70;45.80;;;;;;4880667;29;20199;-85
2022/03/18 07:44:41;;;;;;;7.22;6.13;;;18.80;45.60;;;;;;4866798;29;20236;-85
2022/03/18 07:47:09;;;;;;;8.38;6.80;;;18.80;45.60;;;;;;4865062;29;20202;-85
2022/03/18 07:49:36;;;;;;;8.43;6.72;;;18.80;45.70;;;;;;4849167;29;20278;-90
2022/03/18 07:52:03;;;;;;;8.52;6.22;;;18.90;45.70;;;;;;4846225;29;20238;-87
2022/03/18 07:54:33;;;;;;;8.45;5.82;;;18.90;45.50;;;;;;4861747;29;20206;-86
2022/03/18 07:57:04;;;;;;;9.38;6.47;;;19.00;45.30;;;;;;4860730;29;20397;-87
2022/03/18 07:59:33;;;;;;;8.25;6.55;;;18.90;45.30;;;;;;4863049;29;20230;-86
2022/03/18 08:02:01;;;;;;;7.43;5.95;;;19.00;45.70;;;;;;4875731;29;20669;-85
2022/03/18 08:04:35;;;;;;;7.50;5.72;;;18.90;45.40;;;;;;4875305;29;20171;-88
2022/03/18 08:07:05;;;;;;;7.60;6.45;;;18.90;45.40;;;;;;4858973;29;20191;-85
2022/03/18 08:09:33;;;;;;;7.47;6.40;;;19.00;45.50;;;;;;4860300;29;20196;-89
2022/03/18 08:12:04;;;;;;;8.10;6.50;;;19.00;45.70;;;;;;4844699;29;20267;-89
2022/03/18 08:14:35;;;;;;;8.80;6.75;;;18.90;45.50;;;;;;4877289;29;20659;-87
2022/03/18 08:17:03;;;;;;;9.25;6.70;;;19.00;46.00;;;;;;4875930;29;20191;-85
2022/03/18 08:19:29;;;;;;;9.05;6.07;;;19.00;46.10;;;;;;4893291;29;20203;-87
2022/03/18 08:21:55;;;;;;;7.65;6.03;;;18.90;46.30;;;;;;4907607;29;20202;-87
2022/03/18 08:24:21;;;;;;;7.65;6.00;;;18.80;46.70;;;;;;4875549;29;20171;-90
2022/03/18 08:26:50;;;;;;;8.15;6.57;;;18.90;46.20;;;;;;4890807;29;20163;-87
2022/03/18 08:29:23;;;;;;;8.95;6.43;;;18.80;46.10;;;;;;4844315;29;20202;-87
2022/03/18 08:31:55;;;;;;;7.25;6.30;;;18.90;45.60;;;;;;4860052;29;20199;-88
2022/03/18 08:34:24;;;;;;;6.78;5.32;;;18.90;46.00;;;;;;4876295;29;20202;-86
2022/03/18 08:36:53;;;;;;;7.68;5.57;;;18.90;45.80;;;;;;4878357;29;20183;-82
2022/03/18 08:39:24;;;;;;;8.07;5.60;;;19.00;45.80;;;;;;4880220;29;20223;-85
2022/03/18 08:41:51;;;;;;;7.15;5.22;;;18.90;45.40;;;;;;4881646;29;20191;-83
2022/03/18 08:44:19;;;;;;;7.60;6.38;;;19.00;45.60;;;;;;4897001;29;20203;-84
2022/03/18 08:46:52;;;;;;;7.63;6.07;;;18.90;46.00;;;;;;4896668;29;20155;-84
2022/03/18 08:49:18;;;;;;;6.93;5.20;;;18.90;46.20;;;;;;4878478;29;20282;-83
2022/03/18 08:51:51;;;;;;;7.90;5.45;;;19.00;45.70;;;;;;4879142;29;20179;-84
2022/03/18 08:54:21;;;;;;;8.05;5.43;;;19.00;46.00;;;;;;4861244;29;20192;-84
2022/03/18 08:56:58;;;;;;;8.10;5.15;;;19.00;45.80;;;;;;4878942;29;20202;-84
2022/03/18 08:59:30;;;;;;;6.70;5.50;;;19.00;46.00;;;;;;4847193;29;20626;-84
2022/03/18 09:02:05;;;;;;;6.28;4.82;;;19.00;46.00;;;;;;4848709;29;20187;-84
2022/03/18 09:04:48;;;;;;;7.30;5.63;;;19.00;45.50;;;;;;4862962;29;20183;-83
2022/03/18 09:07:21;;;;;;;5.60;4.90;;;19.10;45.70;;;;;;4848534;29;20194;-83
2022/03/18 09:09:47;;;;;;;6.47;5.38;;;19.10;45.50;;;;;;4849027;29;20187;-83
2022/03/18 09:12:16;;;;;;;6.05;4.85;;;19.00;45.20;;;;;;4879821;29;20182;-82
2022/03/18 09:14:45;;;;;;;9.02;4.43;;;19.10;45.50;;;;;;4878569;29;20171;-83
2022/03/18 09:17:11;;;;;;;7.70;5.47;;;19.10;45.00;;;;;;4863014;29;20221;-83
2022/03/18 09:19:42;;;;;;;6.05;5.00;;;19.00;46.10;;;;;;4911576;29;20187;-82
2022/03/18 09:22:11;;;;;;;7.10;6.10;;;19.00;45.70;;;;;;4862270;29;20179;-83
2022/03/18 09:24:37;;;;;;;6.10;5.50;;;19.00;46.40;;;;;;4875245;29;20195;-84
2022/03/18 09:27:09;;;;;;;7.68;5.43;;;19.00;46.20;;;;;;4875301;29;20210;-82
2022/03/18 09:29:35;;;;;;;8.10;5.78;;;19.00;46.00;;;;;;4830579;29;20192;-83
2022/03/18 09:32:07;;;;;;;7.03;5.32;;;19.00;46.60;;;;;;4859707;29;20172;-83
2022/03/18 09:34:34;;;;;;;7.10;5.55;;;19.00;46.40;;;;;;4844443;29;20196;-82
2022/03/18 09:37:00;;;;;;;7.30;4.63;;;18.90;46.50;;;;;;4875521;29;20204;-83
2022/03/18 09:39:27;;;;;;;6.85;5.30;;;19.00;46.00;;;;;;4860932;29;20216;-82
2022/03/18 09:41:53;;;;;;;6.60;5.50;;;19.00;45.80;;;;;;4860041;29;20235;-82
2022/03/18 09:44:19;;;;;;;7.07;5.50;;;19.00;45.90;;;;;;4875387;29;20188;-82
2022/03/18 09:46:47;;;;;;;5.65;4.63;;;19.00;46.30;;;;;;4859492;29;20165;-83
2022/03/18 09:49:14;;;;;;;7.32;5.35;;;19.00;45.70;;;;;;4875194;29;20168;-82
2022/03/18 09:51:43;;;;;;;7.80;5.43;;;19.10;46.00;;;;;;4860688;29;20180;-83
2022/03/18 09:54:14;;;;;;;6.40;4.72;;;19.00;46.40;;;;;;4876358;29;20224;-82
2022/03/18 09:56:44;;;;;;;7.20;5.15;;;19.10;45.60;;;;;;4878027;29;20198;-83
2022/03/18 09:59:10;;;;;;;6.95;5.15;;;19.00;46.30;;;;;;4833300;29;20227;-83
2022/03/18 10:01:40;;;;;;;5.75;4.45;;;18.90;46.00;;;;;;4894271;29;20179;-83
2022/03/18 10:04:11;;;;;;;9.32;4.93;;;19.00;45.80;;;;;;4863387;29;20215;-83
2022/03/18 10:06:38;;;;;;;5.85;4.90;;;19.00;46.10;;;;;;4862701;29;20187;-84
2022/03/18 10:09:05;;;;;;;7.03;4.80;;;18.90;46.50;;;;;;4880810;29;20184;-84
2022/03/18 10:11:34;;;;;;;6.55;4.57;;;19.00;45.90;;;;;;4880340;29;20175;-82
2022/03/18 10:14:08;;;;;;;6.32;4.50;;;19.00;45.60;;;;;;4879369;29;20186;-83
2022/03/18 10:16:47;;;;;;;5.70;4.78;;;19.00;45.70;;;;;;4862878;29;20179;-82
2022/03/18 10:19:16;;;;;;;5.95;4.55;;;19.00;45.90;;;;;;4848674;29;20215;-82
2022/03/18 10:22:04;;;;;;;6.88;4.70;;;19.00;46.00;;;;;;4894080;29;20230;-86
2022/03/18 10:24:33;;;;;;;5.75;4.45;;;19.10;45.50;;;;;;4842753;29;20203;-85
2022/03/18 10:27:20;;;;;;;5.80;4.15;;;19.00;45.50;;;;;;4859965;29;20203;-84
2022/03/18 10:29:50;;;;;;;5.57;4.43;;;19.00;45.40;;;;;;4846931;29;20233;-84
2022/03/18 10:32:21;;;;;;;5.65;4.70;;;19.10;45.90;;;;;;4878071;29;20168;-84
2022/03/18 10:37:46;;;;;;;6.00;4.72;;;19.10;45.70;;;;;;4879450;29;20287;-86
2022/03/18 10:40:12;;;;;;;5.63;4.78;;;19.00;45.50;;;;;;4878025;29;20188;-83
2022/03/18 10:42:58;;;;;;;5.40;4.68;;;19.10;45.30;;;;;;4878478;29;20185;-84
2022/03/18 10:45:29;;;;;;;6.13;4.70;;;19.10;45.80;;;;;;4864086;29;20219;-85
2022/03/18 10:48:08;;;;;;;4.90;4.35;;;19.10;45.80;;;;;;4861374;29;20219;-83
2022/03/18 10:50:34;;;;;;;6.75;4.78;;;19.10;45.70;;;;;;4877930;29;20164;-83
2022/03/18 10:53:02;;;;;;;5.00;4.10;;;19.00;46.10;;;;;;4878781;29;20165;-84
2022/03/18 10:55:37;;;;;;;4.93;4.25;;;19.00;45.70;;;;;;4861903;29;20176;-83
2022/03/18 10:58:08;;;;;;;9.18;5.03;;;19.00;45.90;;;;;;4862027;29;20223;-83
2022/03/18 11:00:35;;;;;;;6.05;4.97;;;19.10;46.00;;;;;;4862938;29;20172;-84
2022/03/18 11:03:06;;;;;;;4.68;3.60;;;19.10;46.30;;;;;;4878301;29;20601;-82
2022/03/18 11:05:39;;;;;;;5.07;4.55;;;19.00;45.40;;;;;;4846381;29;20187;-83
2022/03/18 11:08:17;;;;;;;7.93;4.50;;;19.10;45.60;;;;;;4846724;29;20184;-83
2022/03/18 11:13:33;;;;;;;4.50;3.85;;;19.10;45.70;;;;;;4877985;29;20227;-84
2022/03/18 11:15:59;;;;;;;6.18;4.35;;;19.10;46.10;;;;;;4861753;29;20196;-85
2022/03/18 11:18:28;;;;;;;5.78;4.50;;;19.10;45.40;;;;;;4874911;29;20225;-84
2022/03/18 11:21:06;;;;;;;5.78;4.80;;;19.10;45.70;;;;;;4872914;29;20176;-87
2022/03/18 11:23:31;;;;;;;5.15;4.47;;;19.20;46.00;;;;;;4865659;29;20286;-86
2022/03/18 11:26:01;;;;;;;5.28;4.13;;;19.10;45.80;;;;;;4893025;29;20204;-83
2022/03/18 11:28:28;;;;;;;4.50;4.00;;;19.10;45.80;;;;;;4860382;29;20188;-83
2022/03/18 11:31:05;;;;;;;5.65;4.65;;;19.10;45.60;;;;;;4875887;29;20172;-84
2022/03/18 11:33:32;;;;;;;5.80;4.90;;;19.10;45.80;;;;;;4857911;29;20192;-84
2022/03/18 11:36:04;;;;;;;4.65;4.15;;;19.10;46.00;;;;;;4873267;29;20240;-83
2022/03/18 11:38:59;;;;;;;5.35;4.35;;;19.10;45.70;;;;;;4871707;29;20220;-84
2022/03/18 11:41:28;;;;;;;6.82;4.80;;;19.10;45.70;;;;;;4857729;29;20280;-84
2022/03/18 11:43:57;;;;;;;5.68;4.75;;;19.10;45.60;;;;;;4858229;29;20172;-84
2022/03/18 11:46:27;;;;;;;4.93;4.28;;;19.10;45.80;;;;;;4857074;29;20169;-84
2022/03/18 11:48:56;;;;;;;4.95;4.25;;;19.10;45.70;;;;;;4854221;29;20197;-85
2022/03/18 11:51:31;;;;;;;4.80;4.30;;;19.10;46.00;;;;;;4809673;29;20198;-84
2022/03/18 11:54:05;;;;;;;4.72;4.05;;;19.00;46.00;;;;;;4824126;29;20181;-83
2022/03/18 11:56:44;;;;;;;4.90;4.40;;;19.10;45.70;;;;;;4825010;29;20200;-84
2022/03/18 11:59:46;;;;;;;5.18;3.83;;;19.10;45.80;;;;;;4860626;29;20306;-85
2022/03/18 12:02:13;;;;;;;5.40;4.45;;;19.10;46.00;;;;;;4876435;29;20211;-85
2022/03/18 12:04:48;;;;;;;4.47;4.00;;;19.00;46.10;;;;;;4860284;29;20232;-83
2022/03/18 12:07:22;;;;;;;6.03;4.70;;;19.10;45.80;;;;;;4844852;29;20184;-84
2022/03/18 12:10:09;;;;;;;4.60;3.80;;;19.10;46.00;;;;;;4860217;29;20217;-85
2022/03/18 12:12:45;;;;;;;4.65;4.13;;;19.10;45.80;;;;;;4849509;29;20176;-84
2022/03/18 12:15:19;;;;;;;5.43;4.28;;;19.10;45.90;;;;;;4830017;29;20223;-84
2022/03/18 12:17:52;;;;;;;5.32;4.60;;;19.10;46.10;;;;;;4830191;29;20195;-84
2022/03/18 12:20:28;;;;;;;4.43;3.85;;;19.00;45.90;;;;;;4870487;29;20184;-85
2022/03/18 12:22:54;;;;;;;5.18;3.95;;;19.10;46.00;;;;;;4888419;29;20279;-85
2022/03/18 12:25:25;;;;;;;4.43;3.90;;;19.10;45.80;;;;;;4845890;29;20180;-84
2022/03/18 12:27:52;;;;;;;4.70;4.13;;;19.10;45.90;;;;;;4845356;29;20218;-84
2022/03/18 12:30:20;;;;;;;6.28;3.97;;;19.10;45.90;;;;;;4860825;29;20180;-86
2022/03/18 12:33:03;;;;;;;4.85;4.20;;;19.10;45.90;;;;;;4875866;29;20175;-85
2022/03/18 12:35:31;;;;;;;5.00;3.80;;;19.10;46.00;;;;;;4861320;29;20539;-85
2022/03/18 12:38:06;;;;;;;4.88;3.92;;;19.20;45.80;;;;;;4892513;29;20191;-84
2022/03/18 12:40:40;;;;;;;4.22;3.80;;;19.10;46.00;;;;;;4860490;29;20194;-85
2022/03/18 12:43:11;;;;;;;4.40;3.97;;;19.10;46.00;;;;;;4845820;29;20214;-82
2022/03/18 12:45:42;;;;;;;4.75;4.22;;;19.10;45.80;;;;;;4844057;29;20195;-83
2022/03/18 12:48:14;;;;;;;4.40;3.50;;;19.10;45.90;;;;;;4874925;29;20608;-85
2022/03/18 12:50:47;;;;;;;4.55;3.78;;;19.10;45.80;;;;;;4859632;29;20188;-87
2022/03/18 12:53:22;;;;;;;4.93;4.00;;;19.10;45.80;;;;;;4860697;29;20191;-82
2022/03/18 12:55:55;;;;;;;4.53;4.00;;;19.10;46.00;;;;;;4844866;29;20186;-84
2022/03/18 12:58:38;;;;;;;4.55;4.10;;;19.10;45.80;;;;;;4844719;29;20221;-83
2022/03/18 13:01:11;;;;;;;4.65;3.80;;;19.10;45.70;;;;;;4863923;29;20187;-85
2022/03/18 13:03:42;;;;;;;4.45;3.80;;;19.00;45.70;;;;;;4861574;29;20191;-85
2022/03/18 13:06:19;;;;;;;4.68;4.00;;;19.20;45.90;;;;;;4878047;29;20168;-85
2022/03/18 13:08:57;;;;;;;4.47;3.53;;;19.10;45.90;;;;;;4833356;29;20643;-82
2022/03/18 13:11:31;;;;;;;4.57;3.78;;;19.10;45.80;;;;;;4877225;29;20180;-84
2022/03/18 13:14:05;;;;;;;6.53;4.05;;;19.10;46.00;;;;;;4847873;29;20174;-83
2022/03/18 13:16:41;;;;;;;4.55;3.95;;;19.10;45.90;;;;;;4847006;29;20199;-85
2022/03/18 13:19:07;;;;;;;6.65;4.10;;;19.10;46.20;;;;;;4879035;29;20296;-84